Time;durP1;ratioP1;P1;durP2;ratioP2;P2;SDS_P1;SDS_P2;PMS_P1;PMS_P2;Temp;Humidity;BMP_temperature;BMP_pressure;BME280_temperature;BME280_humidity;BME280_pressure;Samples;Min_cycle;Max_cycle;Signal;HPM_P1;HPM_P2
2023/07/21 00:00:15;;;;;;;1.30;1.20;;;;;;;16.70;73.51;100387.63;5006164;28;20230;-84
2023/07/21 00:02:43;;;;;;;2.33;1.60;;;;;;;16.72;73.53;100395.47;4985648;28;20209;-83
2023/07/21 00:05:10;;;;;;;1.63;1.40;;;;;;;16.73;73.43;100391.88;4999217;28;20218;-83
2023/07/21 00:07:37;;;;;;;1.30;1.20;;;;;;;16.70;74.01;100381.50;5003288;28;20297;-84
2023/07/21 00:10:07;;;;;;;5.47;1.37;;;;;;;16.68;75.00;100361.31;4984392;28;20244;-83
2023/07/21 00:12:34;;;;;;;0.80;0.80;;;;;;;16.67;76.03;100341.16;4979400;28;20223;-84
2023/07/21 00:15:00;;;;;;;1.87;1.40;;;;;;;16.70;76.00;100328.78;4979089;28;20212;-83
2023/07/21 00:17:28;;;;;;;1.23;1.13;;;;;;;16.66;76.00;100323.63;4979002;28;20239;-83
2023/07/21 00:19:56;;;;;;;1.00;0.90;;;;;;;16.71;75.53;100326.06;4979844;28;20253;-83
2023/07/21 00:22:22;;;;;;;2.03;1.20;;;;;;;16.68;74.41;100348.13;5002068;28;20214;-83
2023/07/21 00:24:49;;;;;;;3.70;1.50;;;;;;;16.73;73.77;100365.53;4997460;28;20210;-83
2023/07/21 00:27:17;;;;;;;1.30;1.20;;;;;;;16.68;73.44;100385.03;4998812;28;20210;-85
2023/07/21 00:29:44;;;;;;;3.50;1.30;;;;;;;16.69;73.58;100391.19;4998170;28;20330;-84
2023/07/21 00:32:12;;;;;;;2.10;1.40;;;;;;;16.69;73.04;100399.09;4997665;28;20207;-83
2023/07/21 00:34:38;;;;;;;3.23;1.60;;;;;;;16.65;72.96;100411.56;4979718;28;20242;-84
2023/07/21 00:37:06;;;;;;;2.40;1.37;;;;;;;16.63;73.82;100391.44;4977194;28;20234;-81
2023/07/21 00:39:33;;;;;;;2.33;1.47;;;;;;;16.63;73.32;100392.31;4990370;28;20289;-82
2023/07/21 00:42:00;;;;;;;1.43;1.27;;;;;;;16.58;73.75;100388.16;4998578;28;20234;-83
2023/07/21 00:44:26;;;;;;;2.83;1.80;;;;;;;16.52;74.83;100362.09;4998806;28;20238;-84
2023/07/21 00:46:52;;;;;;;1.70;1.40;;;;;;;16.53;74.64;100356.75;4997456;28;20238;-83
2023/07/21 00:49:19;;;;;;;2.47;1.40;;;;;;;16.49;74.85;100344.66;4997755;28;20235;-83
2023/07/21 00:51:45;;;;;;;4.83;1.80;;;;;;;16.44;75.65;100329.03;5004214;28;20711;-84
2023/07/21 00:54:13;;;;;;;1.40;1.23;;;;;;;16.41;76.34;100302.84;4981489;28;20211;-83
2023/07/21 00:56:40;;;;;;;3.17;1.50;;;;;;;16.41;76.24;100287.03;4976698;28;20214;-83
2023/07/21 00:59:06;;;;;;;1.57;1.17;;;;;;;16.36;77.40;100285.53;4977225;28;20255;-84
2023/07/21 01:01:32;;;;;;;4.47;1.30;;;;;;;16.34;77.63;100256.63;4978527;28;20689;-84
2023/07/21 01:03:59;;;;;;;1.47;1.33;;;;;;;16.31;77.89;100240.94;4994407;28;20220;-85
2023/07/21 01:06:27;;;;;;;2.13;1.40;;;;;;;16.38;77.96;100241.53;4995342;28;20215;-82
2023/07/21 01:08:56;;;;;;;1.50;1.20;;;;;;;16.44;78.10;100242.09;4995640;28;20250;-84
2023/07/21 01:11:25;;;;;;;2.60;1.20;;;;;;;16.36;78.11;100236.31;4997903;28;20233;-83
2023/07/21 01:13:53;;;;;;;1.30;1.20;;;;;;;16.38;78.48;100245.00;4997900;28;20351;-83
2023/07/21 01:16:21;;;;;;;2.80;1.37;;;;;;;16.19;76.55;100263.41;4997616;28;20202;-83
2023/07/21 01:18:49;;;;;;;2.07;1.50;;;;;;;15.99;76.54;100284.53;5006130;28;20238;-83
2023/07/21 01:21:30;;;;;;;1.83;1.40;;;;;;;15.82;76.57;100294.03;4997945;28;20210;-84
2023/07/21 01:24:01;;;;;;;1.40;1.30;;;;;;;15.39;77.48;100293.16;4997174;28;20641;-83
2023/07/21 01:26:29;;;;;;;2.20;1.30;;;;;;;15.42;78.24;100250.09;4997930;28;20212;-84
2023/07/21 01:28:56;;;;;;;1.37;1.27;;;;;;;15.61;77.54;100247.53;5004498;28;20282;-83
2023/07/21 01:31:24;;;;;;;1.73;1.30;;;;;;;15.73;77.65;100247.03;4977655;28;20239;-84
2023/07/21 01:33:52;;;;;;;0.87;0.87;;;;;;;15.87;77.95;100238.53;4978929;28;20266;-85
2023/07/21 01:36:19;;;;;;;2.17;1.50;;;;;;;15.92;78.68;100226.03;4976731;28;20238;-83
2023/07/21 01:38:46;;;;;;;2.80;1.40;;;;;;;15.97;79.10;100207.38;4983890;28;20222;-84
2023/07/21 01:41:13;;;;;;;3.17;1.67;;;;;;;16.01;78.39;100216.84;4995804;28;20289;-83
2023/07/21 01:43:41;;;;;;;1.90;1.10;;;;;;;15.98;78.36;100223.13;4995736;28;20207;-84
2023/07/21 01:46:09;;;;;;;1.20;1.20;;;;;;;16.04;78.04;100232.53;4994966;28;20273;-83
2023/07/21 01:48:36;;;;;;;1.83;1.30;;;;;;;16.12;77.63;100246.19;4996354;28;20237;-83
2023/07/21 01:51:04;;;;;;;1.53;1.43;;;;;;;15.88;76.89;100266.59;4984234;28;20285;-84
2023/07/21 01:53:33;;;;;;;1.60;1.40;;;;;;;15.16;80.33;100243.28;4989727;28;20208;-85
2023/07/21 01:56:03;;;;;;;1.57;1.33;;;;;;;14.73;83.53;100166.16;4995465;28;20208;-83
2023/07/21 01:58:33;;;;;;;1.50;1.40;;;;;;;14.68;84.96;100104.16;4994924;28;20234;-82
2023/07/21 02:01:02;;;;;;;2.00;1.53;;;;;;;14.59;86.06;100080.91;4996582;28;20200;-83
2023/07/21 02:03:29;;;;;;;1.57;1.47;;;;;;;14.49;88.11;100045.41;4988715;28;20204;-82
2023/07/21 02:05:56;;;;;;;1.70;1.60;;;;;;;14.13;91.19;99995.25;4995901;28;20212;-83
2023/07/21 02:08:22;;;;;;;2.10;1.70;;;;;;;13.97;93.29;99943.38;4994452;28;20232;-82
2023/07/21 02:10:49;;;;;;;2.80;1.43;;;;;;;14.03;93.35;99926.53;4995912;28;20231;-82
2023/07/21 02:13:15;;;;;;;1.60;1.50;;;;;;;14.09;93.78;99924.53;4994831;28;20245;-83
2023/07/21 02:15:42;;;;;;;1.90;1.80;;;;;;;14.21;93.44;99930.16;4995100;28;20267;-83
2023/07/21 02:18:10;;;;;;;1.97;1.80;;;;;;;14.40;92.60;99953.88;4994775;28;20642;-82
2023/07/21 02:20:36;;;;;;;1.57;1.47;;;;;;;14.62;91.74;99978.31;4999131;28;20254;-82
2023/07/21 02:23:02;;;;;;;2.13;1.80;;;;;;;14.74;91.15;99997.13;4981737;28;20201;-83
2023/07/21 02:25:29;;;;;;;2.33;2.03;;;;;;;14.60;92.03;100002.97;4974727;28;20211;-82
2023/07/21 02:27:55;;;;;;;2.50;1.90;;;;;;;14.34;94.17;99986.50;4975576;28;20286;-82
2023/07/21 02:30:23;;;;;;;3.10;2.17;;;;;;;14.41;95.00;99963.44;4976823;28;20233;-82
2023/07/21 02:32:49;;;;;;;4.40;2.23;;;;;;;14.29;96.18;99952.56;4979288;28;20206;-82
2023/07/21 02:35:17;;;;;;;3.20;2.57;;;;;;;14.40;96.60;99935.50;4981080;28;20237;-82
2023/07/21 02:37:43;;;;;;;2.13;2.00;;;;;;;14.52;97.92;99928.88;4993258;28;20205;-82
2023/07/21 02:40:12;;;;;;;2.30;2.10;;;;;;;14.68;97.88;99929.94;4999761;28;20220;-82
2023/07/21 02:42:38;;;;;;;2.37;1.90;;;;;;;14.84;96.42;99940.59;5000205;28;20300;-82
2023/07/21 02:45:05;;;;;;;2.50;1.63;;;;;;;14.97;95.81;99962.81;4999787;28;20210;-82
2023/07/21 02:47:32;;;;;;;1.70;1.53;;;;;;;15.09;95.38;99978.00;4999890;28;20232;-83
2023/07/21 02:49:58;;;;;;;3.17;2.30;;;;;;;15.16;94.85;99991.72;4999900;28;20228;-83
2023/07/21 02:52:27;;;;;;;2.00;1.80;;;;;;;15.27;94.55;100000.00;5004775;28;20211;-82
2023/07/21 02:54:53;;;;;;;1.83;1.73;;;;;;;15.27;94.57;100004.41;4995280;28;20755;-82
2023/07/21 02:57:20;;;;;;;2.37;1.87;;;;;;;15.34;93.52;100010.22;4998585;28;20211;-83
2023/07/21 02:59:46;;;;;;;1.70;1.60;;;;;;;15.38;93.95;100017.94;4993220;28;20708;-83
2023/07/21 03:02:14;;;;;;;2.87;1.73;;;;;;;15.40;93.73;100028.34;4998907;28;20237;-82
2023/07/21 03:04:42;;;;;;;1.60;1.50;;;;;;;15.39;94.04;100031.94;4981206;28;20275;-83
2023/07/21 03:07:11;;;;;;;2.07;1.60;;;;;;;15.31;94.47;100028.78;4979507;28;20214;-82
2023/07/21 03:09:39;;;;;;;1.80;1.70;;;;;;;15.12;94.89;100013.81;4980554;28;20227;-83
2023/07/21 03:12:07;;;;;;;3.00;1.77;;;;;;;15.17;95.29;99998.72;4980230;28;20290;-83
2023/07/21 03:14:33;;;;;;;4.03;1.80;;;;;;;15.20;94.70;100009.09;4998962;28;20209;-82
2023/07/21 03:16:59;;;;;;;1.90;1.70;;;;;;;15.32;93.82;100015.59;4999862;28;20210;-83
2023/07/21 03:19:28;;;;;;;1.83;1.50;;;;;;;15.37;92.84;100042.50;4999464;28;20229;-82
2023/07/21 03:21:55;;;;;;;1.60;1.40;;;;;;;15.33;94.36;100024.31;4999309;28;20212;-83
2023/07/21 03:24:21;;;;;;;1.60;1.50;;;;;;;15.39;93.44;100042.44;5007284;28;20206;-82
2023/07/21 03:26:50;;;;;;;2.63;1.50;;;;;;;15.41;92.55;100064.28;4999487;28;20256;-83
2023/07/21 03:29:17;;;;;;;1.83;1.60;;;;;;;15.42;92.13;100064.22;4999349;28;20713;-83
2023/07/21 03:31:43;;;;;;;2.23;1.47;;;;;;;15.37;91.23;100092.47;4999487;28;20229;-83
2023/07/21 03:34:10;;;;;;;1.80;1.57;;;;;;;15.37;91.72;100081.09;4998799;28;20288;-83
2023/07/21 03:36:36;;;;;;;2.90;1.50;;;;;;;15.42;91.57;100084.38;4999296;28;20208;-83
2023/07/21 03:39:02;;;;;;;2.63;1.50;;;;;;;15.39;90.66;100098.53;4998902;28;20254;-82
2023/07/21 03:41:30;;;;;;;2.07;1.87;;;;;;;15.40;90.19;100107.25;4999022;28;20212;-84
2023/07/21 03:43:58;;;;;;;1.93;1.30;;;;;;;15.40;89.03;100131.81;4998658;28;20210;-84
2023/07/21 03:46:24;;;;;;;2.27;2.03;;;;;;;15.39;88.49;100140.59;4999229;28;20289;-83
2023/07/21 03:48:51;;;;;;;1.93;1.80;;;;;;;15.42;88.19;100143.13;4998673;28;20233;-84
2023/07/21 03:51:17;;;;;;;1.87;1.50;;;;;;;15.38;88.83;100141.53;4999445;28;20287;-84
2023/07/21 03:53:44;;;;;;;2.23;1.53;;;;;;;15.33;89.38;100132.97;4998982;28;20207;-83
2023/07/21 03:56:10;;;;;;;1.80;1.40;;;;;;;15.29;90.68;100100.69;4998863;28;20253;-82
2023/07/21 03:58:36;;;;;;;2.00;1.90;;;;;;;15.25;92.48;100067.56;4999840;28;20220;-83
2023/07/21 04:01:04;;;;;;;1.90;1.77;;;;;;;15.21;93.13;100041.50;4998977;28;20201;-83
2023/07/21 04:03:31;;;;;;;1.57;1.47;;;;;;;15.17;93.31;100024.16;4998232;28;20217;-83
2023/07/21 04:06:04;;;;;;;1.93;1.73;;;;;;;15.20;92.73;100018.75;4999276;28;20219;-82
2023/07/21 04:08:30;;;;;;;1.60;1.50;;;;;;;15.23;91.37;100037.88;4998271;28;20237;-83
2023/07/21 04:10:56;;;;;;;1.73;1.63;;;;;;;15.27;90.39;100055.22;4999780;28;20228;-82
2023/07/21 04:13:23;;;;;;;2.60;2.33;;;;;;;15.25;90.50;100059.69;4999110;28;20208;-83
2023/07/21 04:15:51;;;;;;;2.57;2.37;;;;;;;15.27;90.62;100064.88;4997942;28;20725;-83
2023/07/21 04:18:19;;;;;;;3.07;2.73;;;;;;;15.26;91.16;100069.28;4999134;28;20708;-83
2023/07/21 04:20:46;;;;;;;2.80;2.60;;;;;;;15.29;90.83;100066.50;4998303;28;20207;-83
2023/07/21 04:23:12;;;;;;;2.70;2.50;;;;;;;15.30;91.17;100059.47;4998942;28;20215;-84
2023/07/21 04:25:38;;;;;;;2.53;2.40;;;;;;;15.35;91.63;100051.41;4998306;28;20229;-82
2023/07/21 04:28:20;;;;;;;4.00;2.50;;;;;;;15.36;91.94;100045.19;5001843;28;20205;-82
2023/07/21 04:30:47;;;;;;;2.93;2.73;;;;;;;15.35;91.16;100049.63;4998329;28;20276;-83
2023/07/21 04:33:13;;;;;;;2.60;2.40;;;;;;;15.37;91.44;100041.66;4998227;28;20579;-83
2023/07/21 04:35:46;;;;;;;2.93;2.63;;;;;;;15.37;91.40;100045.13;5001448;28;20231;-83
2023/07/21 04:38:12;;;;;;;3.33;3.03;;;;;;;15.39;92.01;100038.03;4985202;28;20655;-83
2023/07/21 04:40:39;;;;;;;2.63;2.43;;;;;;;15.40;92.25;100026.59;4978508;28;20620;-82
2023/07/21 04:43:05;;;;;;;3.13;2.17;;;;;;;15.41;92.43;100020.41;4985277;28;20269;-83
2023/07/21 04:45:32;;;;;;;2.47;2.23;;;;;;;15.43;92.42;100017.72;4998313;28;20212;-83
2023/07/21 04:47:59;;;;;;;2.83;2.53;;;;;;;15.48;92.24;100023.63;4998414;28;20201;-83
2023/07/21 04:50:25;;;;;;;3.00;2.40;;;;;;;15.52;92.05;100032.19;4998139;28;20580;-83
2023/07/21 04:52:53;;;;;;;3.57;2.50;;;;;;;15.57;92.66;100023.19;4997230;28;20230;-83
2023/07/21 04:55:20;;;;;;;2.70;2.50;;;;;;;15.61;92.61;100023.91;4997055;28;20657;-83
2023/07/21 04:57:46;;;;;;;2.80;2.33;;;;;;;15.66;92.81;100004.34;5002332;28;20240;-83
2023/07/21 05:00:15;;;;;;;3.53;2.67;;;;;;;15.75;92.74;100002.22;4979128;28;20295;-82
2023/07/21 05:02:41;;;;;;;2.43;2.30;;;;;;;15.81;92.47;100009.84;4996338;28;20211;-83
2023/07/21 05:05:09;;;;;;;3.07;2.57;;;;;;;15.87;91.27;100022.69;4992892;28;20256;-84
2023/07/21 05:07:35;;;;;;;3.23;2.40;;;;;;;15.86;91.30;100045.53;4997179;28;20632;-82
2023/07/21 05:10:04;;;;;;;2.93;2.40;;;;;;;15.87;91.06;100041.97;4997522;28;20604;-81
2023/07/21 05:12:30;;;;;;;2.57;2.37;;;;;;;15.86;91.21;100042.91;4997536;28;20237;-83
2023/07/21 05:14:57;;;;;;;2.93;2.20;;;;;;;15.85;90.76;100046.44;4996940;28;20206;-83
2023/07/21 05:17:26;;;;;;;2.80;2.37;;;;;;;15.85;90.37;100054.34;5005350;28;20316;-82
2023/07/21 05:19:53;;;;;;;3.10;2.80;;;;;;;15.89;90.86;100057.69;4978126;28;20280;-82
2023/07/21 05:22:19;;;;;;;2.43;1.90;;;;;;;15.92;90.81;100061.97;4977037;28;20274;-81
2023/07/21 05:24:46;;;;;;;2.40;2.03;;;;;;;15.96;90.80;100063.53;4977642;28;20209;-81
2023/07/21 05:27:13;;;;;;;2.77;2.10;;;;;;;15.97;90.48;100065.22;4993192;28;20212;-81
2023/07/21 05:29:40;;;;;;;2.13;1.97;;;;;;;15.96;89.74;100079.34;4994896;23;20275;-73
2023/07/21 05:32:07;;;;;;;3.10;2.80;;;;;;;16.00;89.22;100088.78;4934567;29;20263;-73
2023/07/21 05:34:33;;;;;;;2.77;2.37;;;;;;;15.99;88.98;100094.97;4932533;29;20211;-72
2023/07/21 05:37:00;;;;;;;2.33;2.13;;;;;;;15.99;89.72;100092.34;4935072;29;20217;-73
2023/07/21 05:39:28;;;;;;;2.80;1.77;;;;;;;16.01;88.26;100108.91;4934228;29;20579;-72
2023/07/21 05:41:56;;;;;;;1.93;1.83;;;;;;;16.03;88.89;100104.44;4934857;29;20721;-73
2023/07/21 05:44:24;;;;;;;2.77;1.97;;;;;;;16.03;88.79;100112.34;4942125;29;20237;-72
2023/07/21 05:46:50;;;;;;;2.03;1.77;;;;;;;16.03;89.41;100100.00;4934086;29;20215;-73
2023/07/21 05:49:17;;;;;;;2.70;1.60;;;;;;;16.04;89.86;100082.47;4934857;29;20559;-73
2023/07/21 05:51:43;;;;;;;2.13;1.70;;;;;;;16.06;90.41;100076.19;4934532;29;20243;-73
2023/07/21 05:54:10;;;;;;;3.43;1.90;;;;;;;16.07;90.68;100059.47;4930516;29;20673;-73
2023/07/21 05:56:36;;;;;;;1.83;1.50;;;;;;;16.13;88.95;100075.88;4934144;29;20208;-73
2023/07/21 05:59:03;;;;;;;2.03;1.80;;;;;;;16.20;86.44;100133.47;4936015;29;20234;-72
2023/07/21 06:01:31;;;;;;;1.47;1.37;;;;;;;16.24;87.72;100134.19;4934091;29;20231;-73
2023/07/21 06:03:57;;;;;;;2.77;1.77;;;;;;;16.28;88.50;100117.31;4934225;29;20579;-73
2023/07/21 06:06:24;;;;;;;2.90;1.87;;;;;;;16.37;87.76;100126.53;4934429;29;20219;-72
2023/07/21 06:08:51;;;;;;;2.03;1.67;;;;;;;16.41;87.34;100128.97;4937576;29;20215;-72
2023/07/21 06:11:18;;;;;;;1.90;1.67;;;;;;;16.45;85.82;100153.34;4938060;29;20242;-73
2023/07/21 06:13:44;;;;;;;2.53;1.80;;;;;;;16.48;85.48;100169.88;4937826;29;20227;-72
2023/07/21 06:16:11;;;;;;;2.03;1.90;;;;;;;16.57;85.39;100176.50;4937723;29;20216;-73
2023/07/21 06:18:39;;;;;;;2.23;1.70;;;;;;;16.65;84.34;100189.31;4937922;29;20675;-73
2023/07/21 06:21:05;;;;;;;2.17;1.97;;;;;;;16.72;84.25;100203.03;4937593;29;20228;-72
2023/07/21 06:23:32;;;;;;;3.20;1.70;;;;;;;16.81;85.22;100186.78;4937428;29;20224;-72
2023/07/21 06:25:58;;;;;;;1.27;1.17;;;;;;;16.81;85.31;100174.50;4937832;29;20204;-73
2023/07/21 06:28:25;;;;;;;2.50;1.40;;;;;;;16.84;84.03;100195.41;4937605;29;20696;-72
2023/07/21 06:30:52;;;;;;;2.20;1.50;;;;;;;16.87;84.00;100197.06;4937746;29;20722;-75
2023/07/21 06:33:18;;;;;;;5.63;2.20;;;;;;;16.93;84.87;100177.47;4937629;29;20235;-74
2023/07/21 06:35:46;;;;;;;2.63;1.40;;;;;;;16.98;85.25;100167.53;4937224;29;20221;-74
2023/07/21 06:38:12;;;;;;;2.87;1.60;;;;;;;17.01;84.55;100175.28;4936827;29;20205;-74
2023/07/21 06:40:52;;;;;;;1.70;1.60;;;;;;;17.07;84.79;100170.56;4936983;29;20240;-74
2023/07/21 06:43:19;;;;;;;1.60;1.50;;;;;;;17.12;84.14;100190.56;4937945;29;20266;-75
2023/07/21 06:45:45;;;;;;;1.70;1.60;;;;;;;17.13;84.33;100185.22;4936904;29;20223;-74
2023/07/21 06:48:12;;;;;;;1.60;1.50;;;;;;;16.77;84.96;100172.91;4937122;29;20240;-74
2023/07/21 06:50:39;;;;;;;2.30;2.10;;;;;;;16.88;85.14;100160.06;4937248;29;20236;-74
2023/07/21 06:53:07;;;;;;;2.17;1.97;;;;;;;16.78;84.51;100173.75;4937156;29;20225;-74
2023/07/21 06:55:33;;;;;;;1.90;1.80;;;;;;;16.61;85.44;100161.38;4936338;29;20425;-75
2023/07/21 06:58:00;;;;;;;1.90;1.80;;;;;;;16.76;85.12;100141.34;4936366;29;20302;-75
2023/07/21 07:00:27;;;;;;;2.10;1.90;;;;;;;16.90;84.49;100161.78;4937281;29;20295;-74
2023/07/21 07:02:56;;;;;;;2.10;1.90;;;;;;;16.86;84.37;100161.91;4936911;29;20214;-74
2023/07/21 07:05:22;;;;;;;1.43;1.33;;;;;;;16.84;83.74;100176.97;4936123;29;20706;-75
2023/07/21 07:07:50;;;;;;;1.93;1.83;;;;;;;16.67;83.44;100185.66;4936360;29;20216;-75
2023/07/21 07:10:18;;;;;;;1.80;1.67;;;;;;;16.58;83.95;100180.84;4939056;29;20256;-75
2023/07/21 07:12:44;;;;;;;1.67;1.50;;;;;;;16.47;83.15;100191.91;4936390;29;20287;-75
2023/07/21 07:15:11;;;;;;;2.13;2.03;;;;;;;16.59;84.34;100171.13;4936063;29;20213;-75
2023/07/21 07:17:38;;;;;;;2.23;1.90;;;;;;;16.74;84.22;100170.41;4936016;29;20635;-75
2023/07/21 07:20:08;;;;;;;3.30;1.93;;;;;;;16.86;83.77;100158.44;4936900;29;20232;-75
2023/07/21 07:22:34;;;;;;;1.90;1.50;;;;;;;16.84;82.69;100189.28;4934241;29;20211;-74
2023/07/21 07:25:01;;;;;;;1.93;1.83;;;;;;;16.73;82.05;100210.88;4935695;29;20213;-75
2023/07/21 07:27:29;;;;;;;2.20;2.03;;;;;;;16.94;81.53;100213.44;4936253;29;20228;-75
2023/07/21 07:29:55;;;;;;;3.00;1.90;;;;;;;16.91;80.14;100254.00;4935610;29;20233;-75
2023/07/21 07:32:22;;;;;;;1.60;1.50;;;;;;;17.06;80.99;100240.03;4936233;29;20250;-75
2023/07/21 07:34:48;;;;;;;2.47;1.83;;;;;;;17.07;81.83;100212.75;4935709;29;20867;-75
2023/07/21 07:37:15;;;;;;;2.80;2.00;;;;;;;17.20;81.04;100234.06;4935395;29;20230;-75
2023/07/21 07:39:42;;;;;;;3.23;1.77;;;;;;;17.25;80.68;100242.63;4936153;29;20215;-75
2023/07/21 07:42:08;;;;;;;2.03;1.93;;;;;;;17.36;80.91;100241.22;4935777;29;20661;-75
2023/07/21 07:44:36;;;;;;;2.10;2.00;;;;;;;17.43;80.00;100247.91;4935816;29;20243;-75
2023/07/21 07:47:03;;;;;;;2.13;2.03;;;;;;;17.30;79.69;100267.94;4936422;29;20214;-75
2023/07/21 07:49:30;;;;;;;2.60;2.07;;;;;;;17.25;79.92;100257.63;4936390;29;20212;-73
2023/07/21 07:51:56;;;;;;;2.30;2.10;;;;;;;17.11;78.97;100273.28;4936308;29;20227;-74
2023/07/21 07:54:23;;;;;;;2.37;2.17;;;;;;;17.27;79.72;100259.22;4935539;29;20216;-74
2023/07/21 07:56:50;;;;;;;1.97;1.87;;;;;;;17.35;78.31;100287.88;4935913;29;20214;-74
2023/07/21 07:59:18;;;;;;;2.30;2.10;;;;;;;17.45;77.50;100309.38;4936159;29;20216;-74
2023/07/21 08:01:45;;;;;;;2.10;1.90;;;;;;;17.46;79.30;100293.50;4935599;29;20315;-74
2023/07/21 08:04:12;;;;;;;2.10;2.00;;;;;;;17.65;79.40;100276.72;4935762;29;20209;-74
2023/07/21 08:06:39;;;;;;;1.67;1.63;;;;;;;17.57;78.45;100292.94;4935228;29;20294;-74
2023/07/21 08:09:05;;;;;;;1.77;1.67;;;;;;;17.55;77.80;100308.00;4935758;29;20622;-75
2023/07/21 08:11:32;;;;;;;2.17;1.97;;;;;;;17.61;78.83;100275.16;4935729;29;20287;-75
2023/07/21 08:13:59;;;;;;;1.93;1.77;;;;;;;17.67;78.40;100302.09;4935463;29;20205;-75
2023/07/21 08:16:25;;;;;;;2.70;1.93;;;;;;;17.76;75.40;100340.38;4935334;29;20670;-75
2023/07/21 08:18:53;;;;;;;2.03;1.93;;;;;;;17.91;75.41;100361.69;4935843;29;20267;-75
2023/07/21 08:21:21;;;;;;;1.93;1.83;;;;;;;18.01;76.76;100355.00;4935668;29;20260;-75
2023/07/21 08:23:50;;;;;;;2.20;2.10;;;;;;;18.09;75.02;100367.81;4935167;29;20216;-75
2023/07/21 08:26:16;;;;;;;2.20;2.10;;;;;;;18.17;75.25;100373.56;4935156;29;20212;-75
2023/07/21 08:28:43;;;;;;;2.60;2.40;;;;;;;18.18;73.35;100407.84;4935117;29;20272;-75
2023/07/21 08:31:09;;;;;;;2.30;2.13;;;;;;;18.31;72.93;100433.63;4935273;29;20236;-75
2023/07/21 08:33:36;;;;;;;1.70;1.60;;;;;;;18.35;73.95;100432.53;4935067;29;20233;-75
2023/07/21 08:36:05;;;;;;;1.90;1.80;;;;;;;18.32;71.22;100481.13;4935254;29;20303;-75
2023/07/21 08:38:33;;;;;;;2.23;2.13;;;;;;;18.38;70.04;100507.25;4935337;29;20209;-75
2023/07/21 08:41:03;;;;;;;1.97;1.87;;;;;;;18.41;70.07;100527.38;4927924;29;20239;-75
2023/07/21 08:43:30;;;;;;;2.20;2.10;;;;;;;18.40;70.90;100536.25;4935026;29;20678;-74
2023/07/21 08:46:00;;;;;;;1.90;1.80;;;;;;;18.41;71.01;100525.59;4934910;29;20212;-74
2023/07/21 08:48:26;;;;;;;2.33;2.23;;;;;;;18.40;70.10;100531.81;4935795;29;20253;-74
2023/07/21 08:50:55;;;;;;;2.20;2.10;;;;;;;18.33;68.39;100554.19;4935135;29;20239;-74
2023/07/21 08:53:24;;;;;;;2.00;1.90;;;;;;;18.37;67.88;100590.09;4934293;29;20268;-74
2023/07/21 08:55:53;;;;;;;3.33;2.80;;;;;;;18.49;66.33;100630.09;4934907;29;20216;-74
2023/07/21 08:58:20;;;;;;;2.77;2.00;;;;;;;18.54;66.99;100643.94;4935022;29;20553;-74
2023/07/21 09:00:47;;;;;;;2.50;2.33;;;;;;;18.64;67.43;100624.91;4934755;29;20243;-74
2023/07/21 09:03:21;;;;;;;2.73;2.57;;;;;;;18.70;66.32;100647.53;4935481;29;20205;-74
2023/07/21 09:05:49;;;;;;;3.10;2.90;;;;;;;18.60;65.57;100670.94;4934135;29;20655;-74
2023/07/21 09:08:19;;;;;;;2.93;2.73;;;;;;;18.68;66.70;100654.69;4934687;29;20295;-74
2023/07/21 09:10:47;;;;;;;2.90;2.70;;;;;;;18.76;65.02;100678.97;4934896;29;20233;-74
2023/07/21 09:13:15;;;;;;;2.77;2.57;;;;;;;18.92;65.36;100680.88;4934531;29;20701;-74
2023/07/21 09:15:50;;;;;;;2.30;2.20;;;;;;;19.09;66.56;100649.16;4934017;29;20206;-74
2023/07/21 09:18:16;;;;;;;2.53;2.43;;;;;;;19.19;65.62;100649.53;4934687;29;20212;-74
2023/07/21 09:20:45;;;;;;;2.27;2.17;;;;;;;19.31;66.34;100640.97;4934515;29;20621;-74
2023/07/21 09:23:12;;;;;;;2.80;2.60;;;;;;;19.43;65.95;100645.59;4934253;29;20208;-74
2023/07/21 09:25:51;;;;;;;2.77;2.20;;;;;;;19.53;67.17;100626.59;4934124;29;20592;-74
2023/07/21 09:28:18;;;;;;;2.73;2.63;;;;;;;19.37;65.46;100635.34;4934543;29;20205;-74
2023/07/21 09:30:52;;;;;;;2.67;2.27;;;;;;;19.30;65.75;100639.22;4934393;29;20268;-74
2023/07/21 09:33:23;;;;;;;1.90;1.80;;;;;;;19.31;65.86;100624.22;4934537;29;20226;-74
2023/07/21 09:35:50;;;;;;;2.10;2.00;;;;;;;19.38;68.07;100588.53;4933966;29;20247;-74
2023/07/21 09:38:17;;;;;;;2.67;2.47;;;;;;;19.40;66.43;100578.72;4934365;29;20244;-74
2023/07/21 09:40:43;;;;;;;2.30;2.20;;;;;;;19.36;65.87;100608.94;4934488;29;20237;-74
2023/07/21 09:43:13;;;;;;;2.03;1.90;;;;;;;19.27;65.13;100620.88;4934204;29;20204;-74
2023/07/21 09:45:42;;;;;;;2.30;2.20;;;;;;;19.00;64.52;100653.09;4934007;29;20221;-74
2023/07/21 09:48:09;;;;;;;2.10;2.00;;;;;;;19.19;65.22;100636.31;4934531;29;20672;-74
2023/07/21 09:50:36;;;;;;;2.30;2.20;;;;;;;19.24;63.47;100658.09;4934580;29;20237;-74
2023/07/21 09:53:04;;;;;;;2.57;2.37;;;;;;;19.45;63.91;100648.19;4933937;29;20232;-74
2023/07/21 09:55:37;;;;;;;2.60;2.50;;;;;;;19.54;59.85;100719.16;4934290;29;20213;-74
2023/07/21 09:58:09;;;;;;;2.30;2.20;;;;;;;19.64;60.54;100765.44;4934308;29;20230;-74
2023/07/21 10:00:41;;;;;;;2.40;2.20;;;;;;;19.77;61.09;100760.38;4934465;29;20233;-74
2023/07/21 10:03:08;;;;;;;2.87;2.40;;;;;;;19.68;59.69;100791.75;4934058;29;20671;-74
2023/07/21 10:05:36;;;;;;;2.20;2.10;;;;;;;19.83;59.89;100799.81;4933857;29;20241;-74
2023/07/21 10:08:04;;;;;;;2.20;2.00;;;;;;;19.94;59.65;100795.72;4933364;29;20216;-74
2023/07/21 10:10:31;;;;;;;2.30;2.10;;;;;;;20.04;58.84;100770.50;4934504;29;20780;-74
2023/07/21 10:13:05;;;;;;;3.10;1.80;;;;;;;20.15;58.00;100847.63;4933828;29;20237;-74
2023/07/21 10:15:33;;;;;;;2.10;2.00;;;;;;;20.19;57.74;100873.03;4941680;29;20242;-74
2023/07/21 10:18:03;;;;;;;2.20;2.03;;;;;;;20.32;58.73;100854.69;4934187;29;20218;-74
2023/07/21 10:20:45;;;;;;;1.80;1.70;;;;;;;20.24;56.93;100863.03;4933628;29;20621;-74
2023/07/21 10:23:12;;;;;;;1.73;1.63;;;;;;;20.27;57.67;100861.16;4933495;29;20206;-74
2023/07/21 10:26:01;;;;;;;2.13;2.00;;;;;;;20.31;57.42;100868.88;4933444;29;20581;-74
2023/07/21 10:28:37;;;;;;;1.70;1.60;;;;;;;20.57;57.82;100856.91;4933760;29;20691;-75
2023/07/21 10:31:31;;;;;;;1.90;1.80;;;;;;;20.76;56.08;100887.75;4933804;29;20232;-74
2023/07/21 10:34:09;;;;;;;2.63;2.20;;;;;;;20.63;56.06;100916.72;4933836;29;20229;-74
2023/07/21 10:36:50;;;;;;;1.80;1.70;;;;;;;20.85;56.21;100889.88;4933572;29;20703;-74
2023/07/21 10:39:19;;;;;;;1.70;1.60;;;;;;;21.06;55.98;100893.16;4933597;29;20206;-74
2023/07/21 10:41:47;;;;;;;1.63;1.53;;;;;;;21.07;55.79;100917.91;4933275;29;20305;-74
2023/07/21 10:44:14;;;;;;;1.70;1.60;;;;;;;21.14;54.32;100946.69;4933804;29;20210;-75
2023/07/21 10:46:42;;;;;;;1.90;1.80;;;;;;;21.12;54.64;100953.88;4938300;29;20217;-76
2023/07/21 10:49:12;;;;;;;2.00;1.90;;;;;;;20.73;56.09;100933.00;4936156;29;20228;-77
2023/07/21 10:51:39;;;;;;;2.20;2.10;;;;;;;20.68;57.47;100906.75;4934532;29;20736;-75
2023/07/21 10:54:06;;;;;;;1.90;1.80;;;;;;;20.66;57.10;100875.94;4935813;29;20730;-75
2023/07/21 10:56:34;;;;;;;1.97;1.87;;;;;;;20.76;57.85;100845.31;4936946;29;20217;-77
2023/07/21 10:59:01;;;;;;;2.03;1.93;;;;;;;20.75;58.83;100825.88;4936680;29;20273;-77
2023/07/21 11:01:27;;;;;;;1.57;1.47;;;;;;;20.95;58.24;100808.84;4935400;29;20231;-77
2023/07/21 11:03:54;;;;;;;2.10;1.90;;;;;;;21.12;56.47;100822.94;4936045;29;20206;-76
2023/07/21 11:06:22;;;;;;;2.07;1.97;;;;;;;20.96;57.79;100815.00;4936323;29;20205;-76
2023/07/21 11:08:50;;;;;;;1.90;1.80;;;;;;;21.04;56.71;100820.72;4935314;29;20212;-76
2023/07/21 11:11:16;;;;;;;2.40;2.20;;;;;;;21.32;56.76;100814.69;4936881;29;20228;-77
2023/07/21 11:13:43;;;;;;;4.80;1.57;;;;;;;21.27;56.49;100837.13;4936353;29;20229;-76
2023/07/21 11:16:10;;;;;;;1.90;1.80;;;;;;;21.45;56.62;100819.31;4943425;29;20212;-77
2023/07/21 11:18:41;;;;;;;2.70;1.80;;;;;;;21.58;56.60;100828.28;4936367;29;20213;-76
2023/07/21 11:21:08;;;;;;;1.83;1.73;;;;;;;21.68;55.05;100857.81;4937939;29;20321;-77
2023/07/21 11:23:36;;;;;;;2.07;1.97;;;;;;;21.91;54.82;100881.25;4943454;29;20204;-77
2023/07/21 11:26:04;;;;;;;1.93;1.80;;;;;;;22.08;53.96;100906.84;4943901;29;20211;-77
2023/07/21 11:28:31;;;;;;;1.83;1.73;;;;;;;22.06;53.16;100939.75;4941662;29;20588;-76